Time;durP1;ratioP1;P1;durP2;ratioP2;P2;SDS_P1;SDS_P2;PMS_P1;PMS_P2;Temp;Humidity;BMP_temperature;BMP_pressure;BME280_temperature;BME280_humidity;BME280_pressure;Samples;Min_cycle;Max_cycle;Signal;HPM_P1;HPM_P2
2022/10/20 00:00:31;;;;;;;2.13;1.98;;;;;;;;;;5073751;28;20052;-83
2022/10/20 00:02:57;;;;;;;4.13;3.72;;;;;;;;;;5068105;28;20463;-84
2022/10/20 00:05:24;;;;;;;2.72;2.53;;;;;;;;;;5070146;28;20044;-83
2022/10/20 00:07:50;;;;;;;1.50;1.40;;;;;;;;;;5063657;28;20062;-84
2022/10/20 00:10:18;;;;;;;4.68;4.38;;;;;;;;;;5053689;28;20045;-84
2022/10/20 00:12:45;;;;;;;7.45;5.13;;;;;;;;;;5053535;28;20041;-84
2022/10/20 00:15:11;;;;;;;4.28;3.47;;;;;;;;;;5060076;28;20045;-85
2022/10/20 00:17:38;;;;;;;3.13;2.17;;;;;;;;;;5060457;28;20554;-84
2022/10/20 00:20:05;;;;;;;3.95;3.58;;;;;;;;;;5053422;28;20187;-84
2022/10/20 00:22:31;;;;;;;5.05;4.85;;;;;;;;;;5053629;28;20140;-84
2022/10/20 00:24:58;;;;;;;3.28;3.03;;;;;;;;;;5053340;28;20103;-84
2022/10/20 00:27:26;;;;;;;4.72;4.35;;;;;;;;;;5053202;28;20079;-84
2022/10/20 00:29:52;;;;;;;2.60;2.42;;;;;;;;;;5053145;28;20045;-84
2022/10/20 00:32:19;;;;;;;4.45;4.03;;;;;;;;;;5067233;28;20133;-84
2022/10/20 00:34:45;;;;;;;4.03;3.75;;;;;;;;;;5072882;28;20049;-84
2022/10/20 00:37:12;;;;;;;5.03;3.15;;;;;;;;;;5061040;28;20524;-84
2022/10/20 00:39:38;;;;;;;4.53;4.22;;;;;;;;;;5053108;28;20049;-84
2022/10/20 00:42:05;;;;;;;6.72;4.82;;;;;;;;;;5053003;28;20041;-84
2022/10/20 00:44:47;;;;;;;2.33;2.08;;;;;;;;;;5052805;28;20122;-84
2022/10/20 00:47:16;;;;;;;2.97;2.85;;;;;;;;;;5053639;28;20068;-84
2022/10/20 00:49:42;;;;;;;5.00;3.90;;;;;;;;;;5052920;28;20056;-84
2022/10/20 00:52:09;;;;;;;4.75;4.32;;;;;;;;;;5052639;28;20049;-84
2022/10/20 00:54:36;;;;;;;8.38;5.45;;;;;;;;;;5052546;28;20103;-84
2022/10/20 00:57:03;;;;;;;4.60;4.20;;;;;;;;;;5052499;28;20467;-84
2022/10/20 00:59:31;;;;;;;4.70;3.85;;;;;;;;;;5052711;28;20114;-84
2022/10/20 01:01:59;;;;;;;2.65;2.38;;;;;;;;;;5052711;28;20118;-84
2022/10/20 01:04:27;;;;;;;6.15;4.35;;;;;;;;;;5063854;28;20044;-84
2022/10/20 01:06:54;;;;;;;3.75;3.40;;;;;;;;;;5053413;28;20057;-84
2022/10/20 01:09:20;;;;;;;3.05;2.88;;;;;;;;;;5052327;28;20057;-84
2022/10/20 01:11:51;;;;;;;3.35;3.08;;;;;;;;;;5052013;28;20052;-84
2022/10/20 01:14:17;;;;;;;;;;;;;;;;;;5052176;28;20102;-84
2022/10/20 01:16:51;;;;;;;3.50;2.78;;;;;;;;;;5052125;28;20388;-84
2022/10/20 01:19:42;;;;;;;2.75;1.90;;;;;;;;;;5052143;28;20053;-84
2022/10/20 01:22:13;;;;;;;10.00;3.78;;;;;;;;;;5068606;28;20056;-84
2022/10/20 01:24:55;;;;;;;4.65;4.25;;;;;;;;;;5072372;28;20041;-84
2022/10/20 01:27:28;;;;;;;3.55;3.10;;;;;;;;;;5069414;28;20048;-84
2022/10/20 01:29:59;;;;;;;4.40;3.65;;;;;;;;;;5072159;28;20415;-84
2022/10/20 01:32:32;;;;;;;4.70;3.70;;;;;;;;;;5052043;28;20060;-85
2022/10/20 01:35:03;;;;;;;4.35;3.45;;;;;;;;;;5052215;28;20056;-84
2022/10/20 01:37:32;;;;;;;4.47;4.18;;;;;;;;;;5054457;28;20048;-84
2022/10/20 01:40:02;;;;;;;5.65;3.85;;;;;;;;;;5066883;28;20522;-84
2022/10/20 01:42:29;;;;;;;3.97;3.67;;;;;;;;;;5071722;28;20048;-85
2022/10/20 01:44:58;;;;;;;3.60;3.28;;;;;;;;;;5071647;28;20086;-85
2022/10/20 01:47:26;;;;;;;5.07;4.43;;;;;;;;;;5071416;28;20048;-84
2022/10/20 01:49:53;;;;;;;3.28;2.75;;;;;;;;;;5071755;28;20090;-84
2022/10/20 01:52:21;;;;;;;4.07;3.67;;;;;;;;;;5071535;28;20048;-84
2022/10/20 01:54:47;;;;;;;4.00;3.63;;;;;;;;;;5071500;28;20049;-84
2022/10/20 01:57:19;;;;;;;5.88;4.65;;;;;;;;;;5055437;28;20045;-85
2022/10/20 01:59:54;;;;;;;3.85;3.50;;;;;;;;;;5059174;28;20049;-85
2022/10/20 02:02:38;;;;;;;2.58;2.38;;;;;;;;;;5051641;28;20439;-84
2022/10/20 02:05:17;;;;;;;4.10;3.80;;;;;;;;;;5051451;28;20099;-84
2022/10/20 02:07:43;;;;;;;3.85;3.60;;;;;;;;;;5051634;28;20106;-84
2022/10/20 02:10:12;;;;;;;5.18;4.22;;;;;;;;;;5051485;28;20110;-84
2022/10/20 02:12:40;;;;;;;4.45;4.15;;;;;;;;;;5052355;28;20049;-84
2022/10/20 02:15:09;;;;;;;6.60;4.00;;;;;;;;;;5051162;28;20555;-84
2022/10/20 02:17:37;;;;;;;2.95;2.45;;;;;;;;;;5051204;28;20111;-84
2022/10/20 02:20:05;;;;;;;4.82;4.40;;;;;;;;;;5054477;28;20493;-85
2022/10/20 02:22:32;;;;;;;2.45;1.90;;;;;;;;;;5055567;28;20106;-85
2022/10/20 02:24:59;;;;;;;2.72;2.25;;;;;;;;;;5061030;28;20041;-85
2022/10/20 02:27:27;;;;;;;4.50;3.65;;;;;;;;;;5056726;28;20053;-84
2022/10/20 02:29:57;;;;;;;2.40;2.03;;;;;;;;;;5062570;28;20118;-84
2022/10/20 02:32:25;;;;;;;4.10;3.90;;;;;;;;;;5055478;28;20061;-84
2022/10/20 02:34:52;;;;;;;4.18;3.78;;;;;;;;;;5055043;28;20489;-85
2022/10/20 02:37:18;;;;;;;3.47;3.13;;;;;;;;;;5055281;28;20057;-85
2022/10/20 02:39:45;;;;;;;4.28;3.72;;;;;;;;;;5055128;28;20053;-84
2022/10/20 02:42:11;;;;;;;6.13;5.55;;;;;;;;;;5055289;28;20045;-84
2022/10/20 02:44:38;;;;;;;7.25;3.97;;;;;;;;;;5055199;28;20048;-84
2022/10/20 02:47:04;;;;;;;1.65;1.55;;;;;;;;;;5055316;28;20076;-85
2022/10/20 02:49:32;;;;;;;4.13;3.83;;;;;;;;;;5058003;28;20106;-85
2022/10/20 02:51:59;;;;;;;3.05;2.70;;;;;;;;;;5054959;28;20626;-85
2022/10/20 02:54:27;;;;;;;7.95;4.78;;;;;;;;;;5054822;28;20049;-85
2022/10/20 02:56:54;;;;;;;4.78;4.38;;;;;;;;;;5055168;28;20071;-85
2022/10/20 02:59:20;;;;;;;6.25;3.42;;;;;;;;;;5055027;28;20555;-84
2022/10/20 03:01:47;;;;;;;2.75;2.58;;;;;;;;;;5054879;28;20102;-84
2022/10/20 03:04:14;;;;;;;3.22;2.92;;;;;;;;;;5054724;28;20099;-84
2022/10/20 03:06:42;;;;;;;3.10;2.97;;;;;;;;;;5067455;28;20044;-85
2022/10/20 03:09:08;;;;;;;3.50;3.20;;;;;;;;;;5074705;28;20056;-84
2022/10/20 03:11:35;;;;;;;3.25;3.03;;;;;;;;;;5074586;28;20496;-84
2022/10/20 03:14:01;;;;;;;4.40;3.08;;;;;;;;;;5074571;28;20106;-84
2022/10/20 03:16:28;;;;;;;8.98;7.68;;;;;;;;;;5072935;28;20094;-84
2022/10/20 03:18:54;;;;;;;4.65;4.25;;;;;;;;;;5062848;28;20462;-84
2022/10/20 03:21:21;;;;;;;4.43;4.13;;;;;;;;;;5056856;28;20114;-84
2022/10/20 03:23:49;;;;;;;5.13;4.78;;;;;;;;;;5055465;28;20102;-84
2022/10/20 03:26:15;;;;;;;5.72;5.25;;;;;;;;;;5054177;28;20057;-84
2022/10/20 03:28:42;;;;;;;6.03;4.05;;;;;;;;;;5054631;28;20048;-84
2022/10/20 03:31:09;;;;;;;3.67;3.35;;;;;;;;;;5054028;28;20052;-84
2022/10/20 03:33:35;;;;;;;8.77;4.13;;;;;;;;;;5054089;28;20049;-84
2022/10/20 03:36:02;;;;;;;4.05;3.65;;;;;;;;;;5054234;28;20107;-84
2022/10/20 03:38:28;;;;;;;7.55;3.97;;;;;;;;;;5054868;28;20103;-84
2022/10/20 03:40:56;;;;;;;3.03;2.83;;;;;;;;;;5053959;28;20558;-84
2022/10/20 03:43:23;;;;;;;5.82;5.43;;;;;;;;;;5054198;28;20447;-84
2022/10/20 03:45:49;;;;;;;5.85;3.80;;;;;;;;;;5054059;28;20049;-84
2022/10/20 03:48:16;;;;;;;4.70;4.40;;;;;;;;;;5054009;28;20048;-84
2022/10/20 03:50:43;;;;;;;4.35;3.97;;;;;;;;;;5053783;28;20099;-84
2022/10/20 03:53:12;;;;;;;4.30;3.95;;;;;;;;;;5053658;28;20447;-85
2022/10/20 03:55:38;;;;;;;3.65;3.45;;;;;;;;;;5057212;28;20055;-85
2022/10/20 03:58:06;;;;;;;4.22;3.90;;;;;;;;;;5053986;28;20125;-85
2022/10/20 04:00:33;;;;;;;7.75;5.50;;;;;;;;;;5053782;28;20441;-85
2022/10/20 04:02:59;;;;;;;3.22;3.03;;;;;;;;;;5053700;28;20103;-84
2022/10/20 04:05:26;;;;;;;2.40;2.20;;;;;;;;;;5053370;28;20056;-85
2022/10/20 04:07:52;;;;;;;2.78;2.53;;;;;;;;;;5053881;28;20114;-85
2022/10/20 04:10:18;;;;;;;5.18;3.40;;;;;;;;;;5054218;28;20057;-86
2022/10/20 04:12:45;;;;;;;3.75;3.13;;;;;;;;;;5056316;28;20668;-85
2022/10/20 04:15:13;;;;;;;2.20;2.05;;;;;;;;;;5053185;28;20045;-87
2022/10/20 04:17:39;;;;;;;7.38;3.92;;;;;;;;;;5052939;28;20057;-85
2022/10/20 04:20:07;;;;;;;3.30;3.00;;;;;;;;;;5053220;28;20447;-85
2022/10/20 04:22:33;;;;;;;4.50;4.10;;;;;;;;;;5053785;28;20110;-85
2022/10/20 04:25:00;;;;;;;4.05;3.65;;;;;;;;;;5053279;28;20044;-85
2022/10/20 04:27:26;;;;;;;7.68;3.75;;;;;;;;;;5053219;28;20056;-84
2022/10/20 04:29:53;;;;;;;4.75;2.97;;;;;;;;;;5059964;28;20387;-84
2022/10/20 04:32:20;;;;;;;4.63;2.97;;;;;;;;;;5073018;28;20110;-84
2022/10/20 04:34:47;;;;;;;2.55;2.35;;;;;;;;;;5072622;28;20102;-85
2022/10/20 04:37:13;;;;;;;2.88;2.60;;;;;;;;;;5053136;28;20045;-84
2022/10/20 04:39:40;;;;;;;3.70;3.38;;;;;;;;;;5053099;28;20099;-85
2022/10/20 04:42:06;;;;;;;3.30;3.10;;;;;;;;;;5052291;28;20114;-85
2022/10/20 04:44:33;;;;;;;4.40;3.17;;;;;;;;;;5052949;28;20094;-85
2022/10/20 04:46:59;;;;;;;4.57;3.80;;;;;;;;;;5058865;28;20052;-85
2022/10/20 04:49:27;;;;;;;5.13;4.50;;;;;;;;;;5072726;28;20102;-85
2022/10/20 04:51:54;;;;;;;3.78;3.42;;;;;;;;;;5072696;28;20397;-84
2022/10/20 04:54:20;;;;;;;3.58;2.40;;;;;;;;;;5053819;28;20091;-84
2022/10/20 04:56:47;;;;;;;4.50;4.10;;;;;;;;;;5052525;28;20056;-84
2022/10/20 04:59:13;;;;;;;5.15;2.83;;;;;;;;;;5052566;28;20087;-86
2022/10/20 05:01:40;;;;;;;2.97;2.63;;;;;;;;;;5065260;28;20048;-84
2022/10/20 05:04:06;;;;;;;3.67;3.38;;;;;;;;;;5067448;28;20044;-86
2022/10/20 05:06:34;;;;;;;3.08;2.85;;;;;;;;;;5072524;28;20048;-84
2022/10/20 05:09:02;;;;;;;2.42;2.22;;;;;;;;;;5072239;28;20055;-84
2022/10/20 05:11:29;;;;;;;2.92;2.72;;;;;;;;;;5072343;28;20045;-84
2022/10/20 05:13:56;;;;;;;3.95;2.60;;;;;;;;;;5072064;28;20052;-84
2022/10/20 05:16:22;;;;;;;5.47;4.15;;;;;;;;;;5072286;28;20090;-84
2022/10/20 05:18:50;;;;;;;3.53;3.20;;;;;;;;;;5070524;28;20053;-84
2022/10/20 05:21:18;;;;;;;3.83;3.15;;;;;;;;;;5069577;28;20045;-84
2022/10/20 05:23:47;;;;;;;2.75;2.50;;;;;;;;;;5072120;28;20049;-84
2022/10/20 05:26:14;;;;;;;7.18;4.53;;;;;;;;;;5072075;28;20048;-84
2022/10/20 05:28:43;;;;;;;4.75;3.03;;;;;;;;;;5071883;28;20098;-86
2022/10/20 05:31:10;;;;;;;4.45;3.72;;;;;;;;;;5068675;28;20102;-84
2022/10/20 05:33:36;;;;;;;3.97;3.67;;;;;;;;;;5059930;28;20060;-84
2022/10/20 05:36:06;;;;;;;3.15;2.83;;;;;;;;;;5052659;28;20049;-84
2022/10/20 05:38:34;;;;;;;5.90;3.63;;;;;;;;;;5051929;28;20044;-82
2022/10/20 05:41:06;;;;;;;4.25;3.95;;;;;;;;;;5051848;28;20080;-83
2022/10/20 05:43:33;;;;;;;3.47;2.92;;;;;;;;;;5051895;28;20114;-83
2022/10/20 05:45:59;;;;;;;3.83;3.47;;;;;;;;;;5051207;28;20111;-83
2022/10/20 05:48:25;;;;;;;4.05;3.67;;;;;;;;;;5051718;28;20098;-83
2022/10/20 05:50:52;;;;;;;5.55;4.25;;;;;;;;;;5051694;28;20114;-83
2022/10/20 05:53:18;;;;;;;3.95;3.60;;;;;;;;;;5059690;28;20044;-83
2022/10/20 05:55:45;;;;;;;5.07;4.68;;;;;;;;;;5064022;28;20048;-83
2022/10/20 05:58:13;;;;;;;3.58;3.38;;;;;;;;;;5063912;28;20095;-83
2022/10/20 06:00:50;;;;;;;3.38;3.05;;;;;;;;;;5054887;28;20040;-84
2022/10/20 06:03:17;;;;;;;3.63;3.33;;;;;;;;;;5059771;28;20052;-84
2022/10/20 06:05:43;;;;;;;3.33;3.00;;;;;;;;;;5059245;28;20048;-84
2022/10/20 06:08:10;;;;;;;4.40;3.47;;;;;;;;;;5061589;28;20087;-85
2022/10/20 06:10:36;;;;;;;6.63;6.13;;;;;;;;;;5055499;28;20057;-85
2022/10/20 06:13:03;;;;;;;5.53;4.55;;;;;;;;;;5063894;28;20105;-84
2022/10/20 06:15:32;;;;;;;3.88;3.28;;;;;;;;;;5067767;28;20048;-85
2022/10/20 06:17:58;;;;;;;7.38;4.60;;;;;;;;;;5064362;28;20110;-84
2022/10/20 06:20:25;;;;;;;3.38;3.08;;;;;;;;;;5070855;28;20045;-85
2022/10/20 06:22:51;;;;;;;4.20;3.90;;;;;;;;;;5071012;28;20451;-85
2022/10/20 06:25:18;;;;;;;4.32;3.83;;;;;;;;;;5070307;28;20098;-85
2022/10/20 06:27:44;;;;;;;5.60;5.10;;;;;;;;;;5068529;28;20899;-85
2022/10/20 06:30:11;;;;;;;4.57;4.25;;;;;;;;;;5070361;28;20056;-85
2022/10/20 06:32:39;;;;;;;4.32;3.97;;;;;;;;;;5065520;28;20049;-85
2022/10/20 06:35:06;;;;;;;3.60;3.33;;;;;;;;;;5057685;28;20091;-85
2022/10/20 06:37:33;;;;;;;5.57;5.15;;;;;;;;;;5050569;28;20504;-85
2022/10/20 06:39:59;;;;;;;4.13;3.83;;;;;;;;;;5054501;28;20489;-85
2022/10/20 06:42:27;;;;;;;7.00;5.43;;;;;;;;;;5051840;28;20111;-85
2022/10/20 06:44:54;;;;;;;5.20;3.85;;;;;;;;;;5070514;28;20041;-85
2022/10/20 06:47:20;;;;;;;4.38;4.07;;;;;;;;;;5065542;28;20128;-84
2022/10/20 06:49:49;;;;;;;8.95;5.90;;;;;;;;;;5050488;28;20053;-85
2022/10/20 06:52:16;;;;;;;4.80;4.40;;;;;;;;;;5050694;28;20049;-85
2022/10/20 06:54:42;;;;;;;6.50;3.67;;;;;;;;;;5049912;28;20053;-84
2022/10/20 06:57:09;;;;;;;4.22;3.83;;;;;;;;;;5050886;28;20546;-84
2022/10/20 06:59:37;;;;;;;24.45;5.47;;;;;;;;;;5050368;28;20044;-84
2022/10/20 07:02:04;;;;;;;4.78;4.38;;;;;;;;;;5050458;28;20049;-84
2022/10/20 07:04:30;;;;;;;5.15;4.75;;;;;;;;;;5050578;28;20099;-85
2022/10/20 07:06:58;;;;;;;9.30;5.22;;;;;;;;;;5054218;28;20053;-85
2022/10/20 07:09:24;;;;;;;7.47;4.03;;;;;;;;;;5055698;28;20061;-84
2022/10/20 07:11:51;;;;;;;4.70;4.05;;;;;;;;;;5073590;28;20165;-84
2022/10/20 07:14:18;;;;;;;7.50;6.05;;;;;;;;;;5064330;28;20048;-84
2022/10/20 07:16:44;;;;;;;2.65;2.47;;;;;;;;;;5053505;28;20475;-84
2022/10/20 07:19:11;;;;;;;3.90;3.58;;;;;;;;;;5053830;28;20045;-84
2022/10/20 07:21:38;;;;;;;5.40;4.97;;;;;;;;;;5054020;28;20053;-84
2022/10/20 07:24:06;;;;;;;7.25;3.28;;;;;;;;;;5052076;28;20106;-84
2022/10/20 07:26:33;;;;;;;2.47;2.28;;;;;;;;;;5072227;28;20106;-84
2022/10/20 07:29:01;;;;;;;3.33;3.13;;;;;;;;;;5073490;28;20044;-84
2022/10/20 07:31:29;;;;;;;3.08;2.83;;;;;;;;;;5066441;28;20718;-84
2022/10/20 07:33:57;;;;;;;3.08;2.88;;;;;;;;;;5073720;28;20048;-84
2022/10/20 07:36:25;;;;;;;3.50;3.20;;;;;;;;;;5055746;28;20052;-84
2022/10/20 07:38:53;;;;;;;3.28;2.78;;;;;;;;;;5058927;28;20104;-83
2022/10/20 07:41:21;;;;;;;3.08;2.65;;;;;;;;;;5067146;28;20094;-83
2022/10/20 07:43:47;;;;;;;4.65;3.58;;;;;;;;;;5072730;28;20045;-82
2022/10/20 07:46:14;;;;;;;4.43;4.03;;;;;;;;;;5057486;28;20103;-83
2022/10/20 07:48:41;;;;;;;3.92;2.72;;;;;;;;;;5052074;28;20053;-83
2022/10/20 07:51:14;;;;;;;2.42;2.22;;;;;;;;;;5056652;28;20839;-83
2022/10/20 07:53:40;;;;;;;4.70;3.38;;;;;;;;;;5070715;28;20114;-83
2022/10/20 07:56:07;;;;;;;2.75;2.55;;;;;;;;;;5068395;28;20055;-83
2022/10/20 07:58:35;;;;;;;2.83;2.67;;;;;;;;;;5052873;28;20045;-84
2022/10/20 08:01:01;;;;;;;3.83;3.22;;;;;;;;;;5052202;28;20053;-84
2022/10/20 08:03:28;;;;;;;4.00;3.70;;;;;;;;;;5052778;28;20367;-84
2022/10/20 08:05:54;;;;;;;3.38;3.08;;;;;;;;;;5052618;28;20110;-84
2022/10/20 08:08:21;;;;;;;4.20;3.90;;;;;;;;;;5060447;28;20462;-84
2022/10/20 08:10:48;;;;;;;2.83;2.63;;;;;;;;;;5061729;28;20049;-84
2022/10/20 08:13:14;;;;;;;5.32;4.85;;;;;;;;;;5053179;28;20053;-83
2022/10/20 08:15:42;;;;;;;5.57;5.15;;;;;;;;;;5055655;28;20101;-85
2022/10/20 08:18:09;;;;;;;5.05;4.68;;;;;;;;;;5056637;28;20669;-84
2022/10/20 08:20:35;;;;;;;2.42;2.22;;;;;;;;;;5062492;28;20044;-84
2022/10/20 08:23:02;;;;;;;2.45;2.15;;;;;;;;;;5052537;28;20049;-85
2022/10/20 08:25:28;;;;;;;2.90;2.70;;;;;;;;;;5051748;28;20087;-85
2022/10/20 08:27:55;;;;;;;2.67;2.55;;;;;;;;;;5052870;28;20049;-84
2022/10/20 08:30:21;;;;;;;2.95;2.70;;;;;;;;;;5058798;28;20049;-85
2022/10/20 08:32:51;;;;;;;1.98;1.80;;;;;;;;;;5072586;28;20060;-84
2022/10/20 08:35:18;;;;;;;2.97;2.78;;;;;;;;;;5071374;28;20044;-85
2022/10/20 08:37:44;;;;;;;4.05;2.40;;;;;;;;;;5065693;28;20500;-85
2022/10/20 08:40:13;;;;;;;1.90;1.77;;;;;;;;;;5059227;28;20102;-84
2022/10/20 08:42:43;;;;;;;4.18;3.78;;;;;;;;;;5052370;28;20114;-84
2022/10/20 08:45:13;;;;;;;3.03;2.83;;;;;;;;;;5052242;28;20056;-85
2022/10/20 08:47:40;;;;;;;;;;;;;;;;;;5052613;28;20122;-85
2022/10/20 08:50:09;;;;;;;4.72;3.13;;;;;;;;;;5059692;28;19966;-86
2022/10/20 08:52:35;;;;;;;2.97;2.78;;;;;;;;;;5066154;28;20098;-84
2022/10/20 08:55:04;;;;;;;4.25;3.95;;;;;;;;;;5069724;28;20048;-84
2022/10/20 08:57:32;;;;;;;2.55;2.38;;;;;;;;;;5062007;28;20048;-85
2022/10/20 09:00:02;;;;;;;2.58;2.38;;;;;;;;;;5070284;28;20052;-85
2022/10/20 09:02:29;;;;;;;3.92;3.53;;;;;;;;;;5051040;28;20075;-85
2022/10/20 09:04:58;;;;;;;2.35;2.15;;;;;;;;;;5051081;28;20440;-85
2022/10/20 09:07:28;;;;;;;2.05;1.95;;;;;;;;;;5051957;28;20045;-85
2022/10/20 09:09:57;;;;;;;2.85;2.45;;;;;;;;;;5051331;28;20049;-84
2022/10/20 09:12:24;;;;;;;3.03;2.83;;;;;;;;;;5050851;28;20052;-85
2022/10/20 09:14:50;;;;;;;3.05;2.85;;;;;;;;;;5051226;28;20045;-85
2022/10/20 09:17:18;;;;;;;3.38;3.08;;;;;;;;;;5050894;28;20126;-86
2022/10/20 09:19:47;;;;;;;3.88;2.33;;;;;;;;;;5050471;28;20053;-85
2022/10/20 09:22:14;;;;;;;3.63;3.33;;;;;;;;;;5050801;28;20544;-85
2022/10/20 09:24:43;;;;;;;3.25;3.03;;;;;;;;;;5051212;28;20045;-85
2022/10/20 09:27:20;;;;;;;3.50;2.67;;;;;;;;;;5067977;28;20271;-85
2022/10/20 09:29:46;;;;;;;4.32;4.03;;;;;;;;;;5070358;28;20048;-85
2022/10/20 09:32:17;;;;;;;3.75;3.45;;;;;;;;;;5070587;28;20049;-84
2022/10/20 09:34:44;;;;;;;3.05;2.67;;;;;;;;;;5070634;28;20508;-85
2022/10/20 09:37:12;;;;;;;1.90;1.80;;;;;;;;;;5064949;28;20110;-85
2022/10/20 09:39:42;;;;;;;5.55;5.15;;;;;;;;;;5070441;28;20052;-85
2022/10/20 09:42:14;;;;;;;5.63;1.92;;;;;;;;;;5061934;28;20056;-85
2022/10/20 09:44:46;;;;;;;4.97;4.68;;;;;;;;;;5070533;28;20049;-83
2022/10/20 09:47:13;;;;;;;3.80;3.50;;;;;;;;;;5054394;28;20037;-84
2022/10/20 09:49:40;;;;;;;3.60;3.40;;;;;;;;;;5050123;28;20485;-84
2022/10/20 09:52:15;;;;;;;3.28;2.95;;;;;;;;;;5051663;28;20452;-84
2022/10/20 09:54:45;;;;;;;3.70;3.40;;;;;;;;;;5050361;28;20417;-86
2022/10/20 09:57:16;;;;;;;2.78;2.58;;;;;;;;;;5050990;28;20087;-85
2022/10/20 09:59:44;;;;;;;4.15;3.83;;;;;;;;;;5050089;28;20492;-86
2022/10/20 10:02:27;;;;;;;3.03;2.83;;;;;;;;;;5057730;28;20041;-85
2022/10/20 10:04:54;;;;;;;2.75;2.55;;;;;;;;;;5055160;28;20217;-85
2022/10/20 10:07:31;;;;;;;3.60;3.40;;;;;;;;;;5053554;28;20611;-85
2022/10/20 10:09:57;;;;;;;;;;;;;;;;;;5051110;28;20055;-84
2022/10/20 10:12:26;;;;;;;4.30;3.97;;;;;;;;;;5046491;28;19921;-85
2022/10/20 10:14:54;;;;;;;5.30;4.90;;;;;;;;;;5052489;28;20126;-85
2022/10/20 10:17:28;;;;;;;4.50;4.18;;;;;;;;;;5051477;28;20053;-84
2022/10/20 10:19:55;;;;;;;4.47;4.15;;;;;;;;;;5050533;28;20118;-84
2022/10/20 10:22:22;;;;;;;5.65;5.25;;;;;;;;;;5067209;28;20481;-85
2022/10/20 10:24:49;;;;;;;5.38;4.72;;;;;;;;;;5071110;28;20052;-85
2022/10/20 10:27:20;;;;;;;3.83;3.53;;;;;;;;;;5070362;28;20056;-85
2022/10/20 10:29:48;;;;;;;3.50;3.30;;;;;;;;;;5071058;28;20106;-85
2022/10/20 10:32:15;;;;;;;3.80;3.17;;;;;;;;;;5069010;28;20052;-85
2022/10/20 10:34:56;;;;;;;3.28;3.00;;;;;;;;;;5070685;28;20118;-86
2022/10/20 10:37:22;;;;;;;3.58;3.38;;;;;;;;;;5055209;28;20045;-85
2022/10/20 10:39:49;;;;;;;3.67;3.47;;;;;;;;;;5071878;28;20072;-84
2022/10/20 10:42:27;;;;;;;4.75;4.28;;;;;;;;;;5060454;28;20045;-85
2022/10/20 10:45:00;;;;;;;4.43;4.13;;;;;;;;;;5054028;28;20057;-85
2022/10/20 10:47:35;;;;;;;6.93;6.43;;;;;;;;;;5053900;28;20044;-85
2022/10/20 10:50:08;;;;;;;4.57;4.38;;;;;;;;;;5054344;28;20052;-85
2022/10/20 10:52:38;;;;;;;3.83;3.60;;;;;;;;;;5054639;28;20049;-87
2022/10/20 10:55:11;;;;;;;4.30;4.07;;;;;;;;;;5058608;28;20048;-84
2022/10/20 10:57:42;;;;;;;5.95;5.63;;;;;;;;;;5072537;28;20461;-85
2022/10/20 11:00:13;;;;;;;3.03;2.83;;;;;;;;;;5074081;28;20056;-85
2022/10/20 11:02:50;;;;;;;5.68;4.95;;;;;;;;;;5074513;28;20098;-84
2022/10/20 11:05:31;;;;;;;4.07;3.80;;;;;;;;;;5074138;28;20109;-84
2022/10/20 11:08:03;;;;;;;5.68;5.38;;;;;;;;;;5073837;28;20097;-84
2022/10/20 11:10:36;;;;;;;4.72;4.43;;;;;;;;;;5073780;28;20105;-84
2022/10/20 11:13:08;;;;;;;4.25;4.05;;;;;;;;;;5073067;28;20455;-84
2022/10/20 11:15:44;;;;;;;7.20;6.60;;;;;;;;;;5069880;28;20106;-84
2022/10/20 11:18:14;;;;;;;4.45;4.03;;;;;;;;;;5073466;28;20056;-84
2022/10/20 11:20:45;;;;;;;4.93;4.53;;;;;;;;;;5073739;28;20045;-85
2022/10/20 11:23:37;;;;;;;5.80;5.43;;;;;;;;;;5073453;28;20105;-84
2022/10/20 11:26:10;;;;;;;4.72;4.43;;;;;;;;;;5073908;28;20113;-84
2022/10/20 11:28:43;;;;;;;4.43;4.13;;;;;;;;;;5074079;28;20048;-84
2022/10/20 11:31:16;;;;;;;3.30;3.00;;;;;;;;;;5070848;28;20051;-85
2022/10/20 11:33:44;;;;;;;4.03;3.83;;;;;;;;;;5053998;28;20049;-84
2022/10/20 11:36:14;;;;;;;4.50;4.20;;;;;;;;;;5053718;28;20049;-85
2022/10/20 11:38:43;;;;;;;4.80;4.40;;;;;;;;;;5053722;28;20055;-84
2022/10/20 11:41:15;;;;;;;5.35;4.30;;;;;;;;;;5053645;28;20099;-84
2022/10/20 11:43:46;;;;;;;4.57;4.28;;;;;;;;;;5054006;28;20132;-85
2022/10/20 11:46:15;;;;;;;5.15;4.85;;;;;;;;;;5053626;28;20131;-84
2022/10/20 11:48:44;;;;;;;4.32;4.03;;;;;;;;;;5057180;28;20102;-85
2022/10/20 11:51:23;;;;;;;7.05;4.18;;;;;;;;;;5053039;28;20099;-84
2022/10/20 11:53:58;;;;;;;4.82;4.45;;;;;;;;;;5053550;28;20057;-84
2022/10/20 11:56:34;;;;;;;3.92;3.65;;;;;;;;;;5053614;28;20118;-84
2022/10/20 11:59:21;;;;;;;4.00;3.55;;;;;;;;;;5053503;28;20144;-85
2022/10/20 12:02:02;;;;;;;6.88;5.20;;;;;;;;;;5027380;28;20127;-84
2022/10/20 12:04:41;;;;;;;3.75;3.45;;;;;;;;;;5053228;28;20834;-84
2022/10/20 12:07:34;;;;;;;4.75;4.45;;;;;;;;;;5052479;28;20045;-84
2022/10/20 12:10:06;;;;;;;4.93;4.63;;;;;;;;;;4997431;28;20157;-85
2022/10/20 12:12:36;;;;;;;3.97;3.67;;;;;;;;;;5010950;28;20053;-86
2022/10/20 12:15:04;;;;;;;6.25;5.93;;;;;;;;;;5010668;28;20042;-86
2022/10/20 12:17:34;;;;;;;4.43;4.20;;;;;;;;;;5010329;28;20116;-86
2022/10/20 12:20:19;;;;;;;4.97;4.78;;;;;;;;;;5011109;28;20049;-86
2022/10/20 12:22:46;;;;;;;4.28;3.97;;;;;;;;;;5000388;28;20549;-86
2022/10/20 12:25:24;;;;;;;5.05;4.75;;;;;;;;;;4991133;28;20687;-85
2022/10/20 12:28:06;;;;;;;5.28;4.93;;;;;;;;;;5003703;28;20050;-86
2022/10/20 12:30:42;;;;;;;4.55;4.15;;;;;;;;;;5009206;28;20061;-87
2022/10/20 12:33:16;;;;;;;4.00;2.50;;;;;;;;;;5010804;28;20053;-86
2022/10/20 12:35:57;;;;;;;4.75;4.45;;;;;;;;;;5010319;28;20069;-87
2022/10/20 12:38:24;;;;;;;2.85;2.65;;;;;;;;;;5010209;28;20054;-87
2022/10/20 12:40:56;;;;;;;3.78;3.50;;;;;;;;;;5010385;28;20050;-86
2022/10/20 12:43:30;;;;;;;4.35;4.10;;;;;;;;;;5010249;28;20398;-86
2022/10/20 12:45:58;;;;;;;3.75;3.42;;;;;;;;;;5043974;28;20492;-86
2022/10/20 12:48:26;;;;;;;3.85;3.58;;;;;;;;;;5056151;28;20650;-86
2022/10/20 12:50:53;;;;;;;2.83;2.63;;;;;;;;;;5057124;28;20117;-87
2022/10/20 12:53:24;;;;;;;3.45;3.20;;;;;;;;;;5070957;28;20045;-86
2022/10/20 12:55:56;;;;;;;3.03;2.83;;;;;;;;;;5060367;28;20128;-86
2022/10/20 12:58:27;;;;;;;3.47;3.28;;;;;;;;;;5069485;28;20479;-86
2022/10/20 13:01:01;;;;;;;4.70;4.40;;;;;;;;;;5073798;28;20510;-86
2022/10/20 13:03:41;;;;;;;11.32;6.70;;;;;;;;;;5055995;28;20459;-86
2022/10/20 13:06:26;;;;;;;3.53;3.22;;;;;;;;;;5081676;28;20491;-86
2022/10/20 13:09:10;;;;;;;3.53;3.33;;;;;;;;;;5069877;28;20135;-86
2022/10/20 13:11:44;;;;;;;3.00;2.72;;;;;;;;;;5069298;28;20049;-86
2022/10/20 13:14:27;;;;;;;4.53;4.32;;;;;;;;;;5066209;28;20047;-85
2022/10/20 13:17:00;;;;;;;4.95;3.95;;;;;;;;;;5071550;28;20048;-86
2022/10/20 13:19:43;;;;;;;3.80;3.60;;;;;;;;;;5062194;28;20562;-86
2022/10/20 13:22:34;;;;;;;4.57;4.18;;;;;;;;;;5062639;28;20040;-85
2022/10/20 13:25:02;;;;;;;2.90;2.63;;;;;;;;;;5044391;28;20126;-85
2022/10/20 13:27:29;;;;;;;3.50;3.30;;;;;;;;;;5062549;28;20048;-86
2022/10/20 13:29:56;;;;;;;3.72;3.42;;;;;;;;;;5052213;28;20056;-85
2022/10/20 13:32:25;;;;;;;4.28;4.07;;;;;;;;;;5056679;28;20378;-86
2022/10/20 13:34:56;;;;;;;3.97;3.75;;;;;;;;;;5071091;28;20484;-87
2022/10/20 13:37:30;;;;;;;4.93;4.63;;;;;;;;;;5067005;28;20045;-87
2022/10/20 13:40:01;;;;;;;4.28;3.97;;;;;;;;;;5078794;28;20045;-87
2022/10/20 13:42:34;;;;;;;4.00;3.70;;;;;;;;;;5062136;28;20048;-87
2022/10/20 13:45:07;;;;;;;6.20;5.20;;;;;;;;;;5078613;28;20036;-87
2022/10/20 13:47:43;;;;;;;5.30;4.90;;;;;;;;;;5077970;28;20056;-87
2022/10/20 13:50:13;;;;;;;3.67;3.45;;;;;;;;;;5062240;28;20106;-87
2022/10/20 13:52:41;;;;;;;3.58;3.38;;;;;;;;;;5070342;28;20133;-86
2022/10/20 13:55:14;;;;;;;5.18;4.63;;;;;;;;;;5068461;28;20067;-87
2022/10/20 13:57:46;;;;;;;5.53;5.13;;;;;;;;;;5067936;28;20055;-87
2022/10/20 14:00:17;;;;;;;3.33;3.13;;;;;;;;;;5070411;28;20052;-86
2022/10/20 14:02:51;;;;;;;4.43;4.22;;;;;;;;;;5070703;28;20052;-87
2022/10/20 14:05:21;;;;;;;3.80;3.50;;;;;;;;;;5070778;28;20094;-86
2022/10/20 14:07:49;;;;;;;3.00;2.88;;;;;;;;;;5064087;28;20102;-87
2022/10/20 14:10:23;;;;;;;3.85;3.58;;;;;;;;;;5069722;28;20049;-86
2022/10/20 14:12:50;;;;;;;4.78;4.55;;;;;;;;;;5070683;28;20474;-86
2022/10/20 14:15:21;;;;;;;4.25;4.05;;;;;;;;;;5072849;28;20466;-86
2022/10/20 14:17:54;;;;;;;3.78;3.58;;;;;;;;;;5072221;28;20060;-86
2022/10/20 14:20:23;;;;;;;4.00;3.70;;;;;;;;;;5062247;28;20052;-86
2022/10/20 14:22:52;;;;;;;4.10;3.88;;;;;;;;;;5074636;28;20048;-86
2022/10/20 14:25:19;;;;;;;3.50;3.30;;;;;;;;;;5081469;28;20056;-87
2022/10/20 14:27:46;;;;;;;3.38;3.17;;;;;;;;;;5066608;28;20396;-86
2022/10/20 14:30:15;;;;;;;3.22;2.72;;;;;;;;;;5072774;28;20056;-86
2022/10/20 14:32:43;;;;;;;3.58;3.33;;;;;;;;;;5069816;28;20056;-86
2022/10/20 14:35:19;;;;;;;3.47;3.28;;;;;;;;;;5074106;28;20057;-87
2022/10/20 14:37:52;;;;;;;3.05;2.53;;;;;;;;;;5067235;28;20049;-86
2022/10/20 14:40:19;;;;;;;3.15;2.95;;;;;;;;;;5069252;28;20049;-86
2022/10/20 14:42:46;;;;;;;3.42;3.13;;;;;;;;;;5064641;28;20122;-88
2022/10/20 14:45:17;;;;;;;5.88;3.35;;;;;;;;;;5065465;28;20182;-86
2022/10/20 14:47:44;;;;;;;3.35;3.05;;;;;;;;;;5073383;28;20048;-86
2022/10/20 14:50:19;;;;;;;4.78;4.47;;;;;;;;;;5065496;28;20103;-87
2022/10/20 14:52:47;;;;;;;2.83;2.63;;;;;;;;;;5056928;28;20053;-87
2022/10/20 14:55:33;;;;;;;3.85;3.65;;;;;;;;;;5067381;28;20446;-86